createdAt,value
2018-06-27T00:01:19.469Z,16.90
2018-06-27T00:03:47.849Z,17.00
2018-06-27T00:06:16.296Z,17.10
2018-06-27T00:08:44.702Z,16.80
2018-06-27T00:11:13.149Z,16.80
2018-06-27T00:13:42.022Z,17.00
2018-06-27T00:16:10.458Z,17.10
2018-06-27T00:18:38.845Z,16.80
2018-06-27T00:21:07.277Z,16.80
2018-06-27T00:23:35.769Z,16.80
2018-06-27T00:26:04.457Z,16.50
2018-06-27T00:28:32.923Z,16.50
2018-06-27T00:31:01.334Z,16.50
2018-06-27T00:33:29.698Z,16.50
2018-06-27T00:35:58.296Z,16.70
2018-06-27T00:38:26.710Z,16.70
2018-06-27T00:40:55.129Z,16.60
2018-06-27T00:43:23.569Z,16.70
2018-06-27T00:45:51.985Z,16.70
2018-06-27T00:48:20.413Z,16.70
2018-06-27T00:50:48.870Z,16.70
2018-06-27T00:53:17.268Z,16.50
2018-06-27T00:55:45.645Z,16.60
2018-06-27T00:58:14.328Z,16.50
2018-06-27T01:00:42.728Z,16.60
2018-06-27T01:03:11.119Z,16.50
2018-06-27T01:05:39.532Z,16.60
2018-06-27T01:08:07.924Z,16.60
2018-06-27T01:10:36.370Z,16.60
2018-06-27T01:13:04.785Z,16.40
2018-06-27T01:15:33.224Z,16.30
2018-06-27T01:18:01.598Z,16.30
2018-06-27T01:20:29.956Z,16.10
2018-06-27T01:22:58.960Z,16.00
2018-06-27T01:25:27.316Z,16.00
2018-06-27T01:27:55.739Z,15.90
2018-06-27T01:30:24.105Z,15.90
2018-06-27T01:32:52.790Z,16.00
2018-06-27T01:35:21.217Z,16.00
2018-06-27T01:37:49.523Z,15.90
2018-06-27T01:40:18.004Z,16.00
2018-06-27T01:45:14.532Z,15.80
2018-06-27T01:47:43.165Z,15.70
2018-06-27T01:50:11.605Z,15.70
2018-06-27T01:52:40.101Z,15.80
2018-06-27T01:55:08.521Z,15.70
2018-06-27T01:57:36.895Z,15.60
2018-06-27T02:00:07.274Z,15.60
2018-06-27T02:02:35.727Z,15.60
2018-06-27T02:05:05.172Z,15.50
2018-06-27T02:07:33.594Z,15.60
2018-06-27T02:10:01.998Z,15.70
2018-06-27T02:12:30.441Z,15.60
2018-06-27T02:14:59.203Z,15.70
2018-06-27T02:17:27.583Z,15.40
2018-06-27T02:19:55.955Z,15.50
2018-06-27T02:22:24.340Z,15.50
2018-06-27T02:24:52.829Z,15.50
2018-06-27T02:27:21.225Z,15.50
2018-06-27T02:29:49.582Z,15.70
2018-06-27T02:32:18.709Z,15.50
2018-06-27T02:34:47.773Z,15.40
2018-06-27T02:37:16.956Z,15.20
2018-06-27T02:39:45.996Z,15.10
2018-06-27T02:42:14.781Z,15.10
2018-06-27T02:44:43.770Z,15.20
2018-06-27T02:47:12.239Z,15.30
2018-06-27T02:49:40.676Z,15.10
2018-06-27T02:52:08.999Z,15.00
2018-06-27T02:54:37.394Z,14.80
2018-06-27T02:57:06.073Z,14.80
2018-06-27T02:59:34.599Z,14.70
2018-06-27T03:02:03.005Z,14.80
2018-06-27T03:04:31.385Z,14.80
2018-06-27T03:06:59.782Z,14.60
2018-06-27T03:09:28.146Z,14.80
2018-06-27T03:11:56.556Z,14.80
2018-06-27T03:16:53.135Z,14.80
2018-06-27T03:19:21.508Z,14.70
2018-06-27T03:21:49.918Z,14.60
2018-06-27T03:24:18.324Z,14.60
2018-06-27T03:26:46.694Z,14.70
2018-06-27T03:29:15.416Z,14.70
2018-06-27T03:31:43.749Z,14.80
2018-06-27T03:34:12.172Z,14.70
2018-06-27T03:36:40.630Z,14.50
2018-06-27T03:39:09.371Z,14.40
2018-06-27T03:41:37.831Z,14.30
2018-06-27T03:44:06.484Z,14.30
2018-06-27T03:46:34.932Z,14.50
2018-06-27T03:49:03.364Z,14.50
2018-06-27T03:51:31.744Z,14.50
2018-06-27T03:54:00.478Z,14.70
2018-06-27T03:56:29.163Z,14.50
2018-06-27T03:58:57.499Z,14.40
2018-06-27T04:01:25.905Z,14.30
2018-06-27T04:03:54.325Z,14.30
2018-06-27T04:06:22.665Z,14.20
2018-06-27T04:08:51.018Z,14.40
2018-06-27T04:11:19.400Z,14.30
2018-06-27T04:13:47.738Z,14.30
2018-06-27T04:16:16.077Z,14.10
2018-06-27T04:18:44.503Z,14.30
2018-06-27T04:21:12.919Z,14.40
2018-06-27T04:23:41.293Z,14.10
2018-06-27T04:26:09.681Z,14.10
2018-06-27T04:28:38.030Z,14.10
2018-06-27T04:31:06.450Z,14.10
2018-06-27T04:33:34.812Z,14.10
2018-06-27T04:36:03.257Z,13.80
2018-06-27T04:38:31.693Z,13.80
2018-06-27T04:41:00.165Z,13.80
2018-06-27T04:43:28.571Z,13.90
2018-06-27T04:45:57.194Z,14.10
2018-06-27T04:48:25.616Z,14.00
2018-06-27T04:50:54.148Z,14.00
2018-06-27T04:53:22.574Z,14.00
2018-06-27T04:55:51.012Z,13.90
2018-06-27T04:58:19.368Z,14.20
2018-06-27T05:00:47.843Z,14.10
2018-06-27T05:03:16.252Z,14.00
2018-06-27T05:05:45.002Z,14.00
2018-06-27T05:08:13.656Z,14.10
2018-06-27T05:10:42.073Z,14.10
2018-06-27T05:13:10.588Z,14.30
2018-06-27T05:15:39.009Z,14.30
2018-06-27T05:18:07.453Z,14.50
2018-06-27T05:20:35.849Z,14.50
2018-06-27T05:23:04.377Z,14.60
2018-06-27T05:25:32.791Z,14.60
2018-06-27T05:28:01.480Z,14.70
2018-06-27T05:30:29.884Z,14.80
2018-06-27T05:32:58.319Z,14.80
2018-06-27T05:35:26.785Z,14.80
2018-06-27T05:37:55.185Z,15.00
2018-06-27T05:40:23.973Z,15.00
2018-06-27T05:42:52.360Z,14.90
2018-06-27T05:45:20.764Z,15.00
2018-06-27T05:47:49.160Z,15.00
2018-06-27T05:50:17.786Z,15.00
2018-06-27T05:52:46.330Z,15.00
2018-06-27T05:55:14.777Z,15.10
2018-06-27T05:57:43.233Z,15.10
2018-06-27T06:00:13.064Z,15.20
2018-06-27T06:02:41.778Z,15.10
2018-06-27T06:05:10.424Z,15.20
2018-06-27T06:07:38.810Z,15.30
2018-06-27T06:10:07.251Z,15.30
2018-06-27T06:12:35.936Z,15.50
2018-06-27T06:15:04.580Z,15.60
2018-06-27T06:17:33.020Z,15.60
2018-06-27T06:20:01.520Z,15.60
2018-06-27T06:22:30.496Z,15.60
2018-06-27T06:24:58.872Z,15.80
2018-06-27T06:27:27.341Z,16.00
2018-06-27T06:29:55.861Z,16.00
2018-06-27T06:32:24.298Z,16.20
2018-06-27T06:34:52.902Z,16.40
2018-06-27T06:37:21.315Z,16.40
2018-06-27T06:39:50.167Z,16.40
2018-06-27T06:42:18.617Z,16.70
2018-06-27T06:44:47.092Z,17.00
2018-06-27T06:47:15.834Z,17.00
2018-06-27T06:49:44.305Z,17.20
2018-06-27T06:52:12.777Z,17.30
2018-06-27T06:54:41.230Z,17.20
2018-06-27T06:57:09.653Z,17.40
2018-06-27T06:59:38.072Z,17.60
2018-06-27T07:02:07.819Z,17.70
2018-06-27T07:04:36.457Z,17.70
2018-06-27T07:09:32.962Z,18.10
2018-06-27T07:12:01.506Z,18.10
2018-06-27T07:14:29.924Z,18.00
2018-06-27T07:16:58.303Z,18.30
2018-06-27T07:19:26.753Z,18.50
2018-06-27T07:21:55.378Z,18.50
2018-06-27T07:24:23.743Z,18.80
2018-06-27T07:26:52.103Z,18.80
2018-06-27T07:29:20.513Z,18.40
2018-06-27T07:31:49.938Z,18.70
2018-06-27T07:34:18.374Z,18.60
2018-06-27T07:36:46.812Z,18.90
2018-06-27T07:39:15.505Z,19.00
2018-06-27T07:41:43.881Z,19.00
2018-06-27T07:44:12.251Z,19.30
2018-06-27T07:46:40.693Z,19.60
2018-06-27T07:49:09.117Z,19.50
2018-06-27T07:51:37.827Z,19.30
2018-06-27T07:54:06.201Z,19.40
2018-06-27T07:56:34.541Z,19.60
2018-06-27T07:59:02.867Z,19.70
2018-06-27T08:01:31.206Z,20.20
2018-06-27T08:03:59.729Z,20.80
2018-06-27T08:06:58.882Z,21.80
2018-06-27T08:09:27.257Z,21.70
2018-06-27T08:11:55.588Z,22.10
2018-06-27T08:14:23.995Z,23.00
2018-06-27T08:16:52.697Z,23.40
2018-06-27T08:19:22.433Z,23.30
2018-06-27T08:21:51.495Z,23.20
2018-06-27T08:24:20.559Z,23.90
2018-06-27T08:26:49.622Z,23.70
2018-06-27T08:29:19.258Z,24.00
2018-06-27T08:31:48.303Z,23.50
2018-06-27T08:36:46.856Z,24.80
2018-06-27T08:39:15.929Z,24.70
2018-06-27T08:41:45.698Z,25.60
2018-06-27T08:44:14.031Z,25.00
2018-06-27T08:46:42.405Z,24.40
2018-06-27T08:49:11.400Z,25.10
2018-06-27T08:51:39.780Z,24.80
2018-06-27T08:54:08.112Z,25.70
2018-06-27T08:56:37.149Z,25.10
2018-06-27T08:59:05.636Z,25.80
2018-06-27T09:01:34.035Z,25.30
2018-06-27T09:04:02.453Z,25.10
2018-06-27T09:06:30.852Z,24.60
2018-06-27T09:08:59.225Z,24.20
2018-06-27T09:11:27.589Z,25.20
2018-06-27T09:13:56.697Z,25.30
2018-06-27T09:16:25.807Z,25.60
2018-06-27T09:18:56.785Z,25.50
2018-06-27T09:21:25.749Z,25.00
2018-06-27T09:23:54.162Z,24.70
2018-06-27T09:26:22.594Z,24.50
2018-06-27T09:28:51.097Z,24.70
2018-06-27T09:31:19.591Z,25.70
2018-06-27T09:33:48.021Z,26.80
2018-06-27T09:36:16.351Z,27.20
2018-06-27T09:38:44.809Z,26.70
2018-06-27T09:41:13.206Z,26.80
2018-06-27T09:43:41.556Z,26.90
2018-06-27T09:46:09.979Z,27.00
2018-06-27T09:48:38.334Z,26.10
2018-06-27T09:51:07.067Z,26.40
2018-06-27T09:53:35.441Z,26.50
2018-06-27T09:56:03.859Z,26.90
2018-06-27T09:58:32.185Z,26.90
2018-06-27T10:01:00.629Z,26.50
2018-06-27T10:03:29.060Z,26.70
2018-06-27T10:05:57.538Z,25.90
2018-06-27T10:08:25.903Z,26.30
2018-06-27T10:10:54.238Z,26.00
2018-06-27T10:13:22.588Z,26.30
2018-06-27T10:15:51.036Z,26.80
2018-06-27T10:18:19.487Z,26.50
2018-06-27T10:20:47.867Z,26.80
2018-06-27T10:23:16.189Z,27.00
2018-06-27T10:25:44.641Z,27.30
2018-06-27T10:28:13.048Z,27.50
2018-06-27T10:30:41.425Z,26.10
2018-06-27T10:33:09.806Z,26.70
2018-06-27T10:35:38.135Z,26.80
2018-06-27T10:38:06.505Z,26.80
2018-06-27T10:40:34.894Z,27.00
2018-06-27T10:43:03.274Z,27.60
2018-06-27T10:45:31.689Z,27.50
2018-06-27T10:48:00.045Z,28.30
2018-06-27T10:50:28.430Z,28.50
2018-06-27T10:52:56.784Z,28.40
2018-06-27T10:55:25.464Z,27.30
2018-06-27T10:57:53.810Z,27.60
2018-06-27T11:00:22.149Z,27.30
2018-06-27T11:02:50.535Z,27.30
2018-06-27T11:05:19.172Z,28.20
2018-06-27T11:07:47.497Z,28.10
2018-06-27T11:12:43.910Z,28.70
2018-06-27T11:15:12.300Z,28.30
2018-06-27T11:17:40.652Z,28.40
2018-06-27T11:20:09.050Z,28.90
2018-06-27T11:22:37.462Z,29.10
2018-06-27T11:25:05.875Z,29.70
2018-06-27T11:27:34.199Z,29.20
2018-06-27T11:30:02.582Z,29.20
2018-06-27T11:32:30.973Z,29.40
2018-06-27T11:35:00.416Z,28.90
2018-06-27T11:37:28.784Z,28.90
2018-06-27T11:39:57.123Z,28.50
2018-06-27T11:42:25.507Z,28.10
2018-06-27T11:44:53.866Z,28.60
2018-06-27T11:47:22.201Z,29.60
2018-06-27T11:49:50.587Z,28.40
2018-06-27T11:52:19.026Z,29.00
2018-06-27T11:54:51.585Z,29.50
2018-06-27T11:59:48.024Z,29.30
2018-06-27T12:02:16.386Z,29.40
2018-06-27T12:04:44.983Z,29.00
2018-06-27T12:07:13.322Z,28.90
2018-06-27T12:09:41.705Z,28.90
2018-06-27T12:12:10.061Z,29.70
2018-06-27T12:14:38.387Z,29.90
2018-06-27T12:17:07.021Z,29.50
2018-06-27T12:19:35.518Z,29.20
2018-06-27T12:24:32.086Z,28.80
2018-06-27T12:27:00.450Z,28.80
2018-06-27T12:29:28.795Z,29.20
2018-06-27T12:31:57.151Z,29.70
2018-06-27T12:34:25.511Z,29.40
2018-06-27T12:36:53.879Z,28.60
2018-06-27T12:39:22.221Z,29.30
2018-06-27T12:41:50.620Z,29.90
2018-06-27T12:44:18.957Z,28.90
2018-06-27T12:46:47.337Z,29.50
2018-06-27T12:49:15.758Z,30.20
2018-06-27T12:51:44.286Z,30.70
2018-06-27T12:54:12.684Z,30.30
2018-06-27T12:56:41.445Z,29.70
2018-06-27T12:59:09.827Z,29.40
2018-06-27T13:01:38.236Z,29.70
2018-06-27T13:04:06.598Z,29.80
2018-06-27T13:06:35.152Z,29.30
2018-06-27T13:09:03.895Z,29.20
2018-06-27T13:11:32.488Z,29.50
2018-06-27T13:14:00.891Z,28.90
2018-06-27T13:16:29.341Z,29.10
2018-06-27T13:18:57.752Z,29.70
2018-06-27T13:21:26.139Z,28.80
2018-06-27T13:23:54.527Z,28.90
2018-06-27T13:26:22.908Z,28.80
2018-06-27T13:28:51.294Z,28.90
2018-06-27T13:31:20.052Z,28.70
2018-06-27T13:36:16.556Z,28.40
2018-06-27T13:38:44.905Z,27.90
2018-06-27T13:41:13.372Z,28.10
2018-06-27T13:43:41.751Z,28.60
2018-06-27T13:46:10.103Z,28.60
2018-06-27T13:48:38.485Z,28.00
2018-06-27T13:51:06.941Z,28.10
2018-06-27T13:53:35.346Z,28.10
2018-06-27T13:56:03.795Z,28.00
2018-06-27T13:58:32.190Z,28.00
2018-06-27T14:01:01.367Z,27.60
2018-06-27T14:05:57.829Z,28.60
2018-06-27T14:08:26.229Z,28.60
2018-06-27T14:10:54.614Z,28.60
2018-06-27T14:13:23.504Z,28.50
2018-06-27T14:15:52.079Z,28.50
2018-06-27T14:18:20.502Z,28.80
2018-06-27T14:20:49.588Z,28.20
2018-06-27T14:23:17.893Z,28.40
2018-06-27T14:25:46.248Z,28.40
2018-06-27T14:28:14.627Z,28.30
2018-06-27T14:30:43.210Z,28.20
2018-06-27T14:33:12.926Z,27.90
2018-06-27T14:35:41.567Z,28.10
2018-06-27T14:38:09.931Z,27.90
2018-06-27T14:40:38.501Z,27.90
2018-06-27T14:43:07.731Z,28.00
2018-06-27T14:45:36.165Z,27.90
2018-06-27T14:48:04.549Z,27.90
2018-06-27T14:50:33.139Z,27.80
2018-06-27T14:53:01.528Z,27.80
2018-06-27T14:55:30.093Z,28.00
2018-06-27T14:57:58.506Z,28.20
2018-06-27T15:00:26.965Z,28.20
2018-06-27T15:02:55.392Z,28.00
2018-06-27T15:05:24.096Z,27.60
2018-06-27T15:07:52.465Z,27.50
2018-06-27T15:10:20.853Z,27.50
2018-06-27T15:12:49.233Z,27.60
2018-06-27T15:15:17.631Z,27.60
2018-06-27T15:17:45.947Z,27.40
2018-06-27T15:22:42.646Z,27.40
2018-06-27T15:25:11.020Z,27.60
2018-06-27T15:27:39.490Z,27.40
2018-06-27T15:30:07.889Z,27.30
2018-06-27T15:32:36.296Z,27.20
2018-06-27T15:35:05.425Z,27.20
2018-06-27T15:37:33.892Z,27.00
2018-06-27T15:40:02.221Z,27.00
2018-06-27T15:42:30.560Z,27.00
2018-06-27T15:44:58.903Z,27.30
2018-06-27T15:47:27.375Z,27.30
2018-06-27T15:49:55.763Z,27.20
2018-06-27T15:52:24.218Z,27.00
2018-06-27T15:54:52.632Z,26.80
2018-06-27T15:57:21.586Z,26.70
2018-06-27T15:59:53.244Z,26.50
2018-06-27T16:02:22.228Z,26.20
2018-06-27T16:04:50.604Z,26.30
2018-06-27T16:07:19.560Z,26.40
2018-06-27T16:09:49.114Z,26.60
2018-06-27T16:12:17.492Z,26.50
2018-06-27T16:14:46.187Z,26.70
2018-06-27T16:17:14.946Z,26.70
2018-06-27T16:19:43.558Z,26.80
2018-06-27T16:22:11.934Z,26.80
2018-06-27T16:27:20.046Z,26.50
2018-06-27T16:29:49.731Z,26.60
2018-06-27T16:32:18.086Z,26.50
2018-06-27T16:34:46.492Z,26.60
2018-06-27T16:39:43.042Z,26.50
2018-06-27T16:44:39.888Z,26.30
2018-06-27T16:47:08.249Z,26.10
2018-06-27T16:49:36.544Z,26.30
2018-06-27T16:52:04.946Z,26.40
2018-06-27T16:54:33.275Z,26.40
2018-06-27T16:57:01.665Z,26.20
2018-06-27T16:59:30.053Z,26.10
2018-06-27T17:01:58.471Z,26.00
2018-06-27T17:04:26.857Z,26.10
2018-06-27T17:06:55.225Z,26.10
2018-06-27T17:09:23.636Z,26.10
2018-06-27T17:11:52.006Z,26.10
2018-06-27T17:14:20.374Z,25.90
2018-06-27T17:16:48.730Z,26.00
2018-06-27T17:19:17.402Z,26.10
2018-06-27T17:21:45.834Z,26.10
2018-06-27T17:24:14.334Z,26.10
2018-06-27T17:26:42.606Z,26.00
2018-06-27T17:29:11.257Z,26.10
2018-06-27T17:31:39.918Z,26.10
2018-06-27T17:34:08.427Z,26.10
2018-06-27T17:36:37.158Z,26.00
2018-06-27T17:39:07.873Z,25.90
2018-06-27T17:41:36.575Z,25.70
2018-06-27T17:44:05.181Z,25.80
2018-06-27T17:46:33.497Z,25.90
2018-06-27T17:49:01.937Z,25.90
2018-06-27T17:51:30.452Z,25.70
2018-06-27T17:53:58.930Z,25.60
2018-06-27T17:56:27.497Z,25.50
2018-06-27T18:01:24.926Z,25.10
2018-06-27T18:03:53.687Z,25.10
2018-06-27T18:06:22.166Z,25.30
2018-06-27T18:08:50.945Z,25.10
2018-06-27T18:11:19.389Z,25.10
2018-06-27T18:13:47.809Z,25.20
2018-06-27T18:16:16.807Z,25.20
2018-06-27T18:18:45.254Z,25.20
2018-06-27T18:21:13.741Z,25.10
2018-06-27T18:23:42.271Z,25.30
2018-06-27T18:26:10.732Z,25.20
2018-06-27T18:28:39.118Z,25.10
2018-06-27T18:31:07.548Z,25.10
2018-06-27T18:33:36.292Z,25.10
2018-06-27T18:36:04.769Z,25.10
2018-06-27T18:38:33.161Z,25.10
2018-06-27T18:41:01.596Z,25.10
2018-06-27T18:43:30.000Z,25.10
2018-06-27T18:45:58.516Z,24.90
2018-06-27T18:48:27.105Z,24.80
2018-06-27T18:50:55.510Z,24.80
2018-06-27T18:53:24.028Z,24.80
2018-06-27T18:55:52.538Z,24.80
2018-06-27T18:58:21.612Z,24.80
2018-06-27T19:00:50.059Z,24.80
2018-06-27T19:03:18.498Z,24.80
2018-06-27T19:05:47.538Z,24.70
2018-06-27T19:08:16.098Z,24.60
2018-06-27T19:10:44.519Z,24.50
2018-06-27T19:13:33.529Z,24.40
2018-06-27T19:16:02.062Z,24.30
2018-06-27T19:18:30.557Z,24.20
2018-06-27T19:20:58.987Z,24.30
2018-06-27T19:23:27.503Z,24.20
2018-06-27T19:25:55.907Z,24.20
2018-06-27T19:28:24.348Z,24.20
2018-06-27T19:30:52.704Z,24.10
2018-06-27T19:33:21.424Z,24.10
2018-06-27T19:35:50.461Z,24.00
2018-06-27T19:38:18.877Z,24.10
2018-06-27T19:40:47.355Z,24.00
2018-06-27T19:43:16.095Z,23.90
2018-06-27T19:45:44.660Z,23.80
2018-06-27T19:48:13.116Z,23.80
2018-06-27T19:50:41.507Z,23.80
2018-06-27T19:53:09.885Z,23.80
2018-06-27T19:55:38.687Z,23.70
2018-06-27T19:58:07.105Z,23.70
2018-06-27T20:00:35.537Z,23.70
2018-06-27T20:03:04.242Z,23.60
2018-06-27T20:05:32.787Z,23.70
2018-06-27T20:08:01.415Z,23.60
2018-06-27T20:10:29.721Z,23.60
2018-06-27T20:12:58.183Z,23.60
2018-06-27T20:15:26.849Z,23.50
2018-06-27T20:17:55.475Z,23.40
2018-06-27T20:20:23.881Z,23.40
2018-06-27T20:22:52.282Z,23.20
2018-06-27T20:25:20.745Z,23.20
2018-06-27T20:27:49.234Z,23.30
2018-06-27T20:30:17.639Z,23.30
2018-06-27T20:32:46.204Z,23.20
2018-06-27T20:35:14.628Z,23.10
2018-06-27T20:37:44.307Z,23.00
2018-06-27T20:40:12.719Z,23.00
2018-06-27T20:42:41.127Z,22.90
2018-06-27T20:45:09.497Z,22.90
2018-06-27T20:50:06.114Z,22.80
2018-06-27T20:52:34.576Z,22.80
2018-06-27T20:55:03.076Z,22.80
2018-06-27T20:57:31.472Z,22.70
2018-06-27T21:00:00.140Z,22.80
2018-06-27T21:02:28.606Z,22.90
2018-06-27T21:04:57.524Z,23.00
2018-06-27T21:07:25.944Z,22.90
2018-06-27T21:09:54.436Z,22.60
2018-06-27T21:14:51.113Z,22.60
2018-06-27T21:19:47.850Z,22.30
2018-06-27T21:22:16.287Z,22.30
2018-06-27T21:24:45.707Z,22.20
2018-06-27T21:27:14.443Z,22.20
2018-06-27T21:29:43.024Z,22.10
2018-06-27T21:32:11.828Z,22.10
2018-06-27T21:34:41.176Z,22.00
2018-06-27T21:37:09.644Z,22.00
2018-06-27T21:39:38.066Z,21.90
2018-06-27T21:42:06.518Z,21.80
2018-06-27T21:44:34.933Z,21.80
2018-06-27T21:47:06.637Z,21.90
2018-06-27T21:49:35.028Z,21.70
2018-06-27T21:52:03.544Z,21.70
2018-06-27T21:54:32.367Z,21.70
2018-06-27T21:57:00.738Z,21.70
2018-06-27T21:59:29.140Z,21.60
2018-06-27T22:01:57.744Z,21.60
2018-06-27T22:04:26.430Z,21.40
2018-06-27T22:06:54.846Z,21.50
2018-06-27T22:09:23.869Z,21.50
2018-06-27T22:11:52.309Z,21.50
2018-06-27T22:14:20.781Z,21.50
2018-06-27T22:16:49.425Z,21.60
2018-06-27T22:19:18.136Z,21.50
2018-06-27T22:21:46.536Z,21.40
2018-06-27T22:24:15.030Z,21.30
2018-06-27T22:26:43.441Z,21.30
2018-06-27T22:29:12.090Z,21.10
2018-06-27T22:31:41.236Z,21.10
2018-06-27T22:34:09.730Z,21.00
2018-06-27T22:36:38.214Z,21.00
2018-06-27T22:39:08.130Z,21.00
2018-06-27T22:41:36.584Z,20.90
2018-06-27T22:44:05.205Z,20.90
2018-06-27T22:46:33.813Z,20.90
2018-06-27T22:49:02.253Z,21.00
2018-06-27T22:51:30.631Z,20.90
2018-06-27T22:53:59.138Z,20.80
2018-06-27T22:56:28.038Z,20.70
2018-06-27T22:58:56.492Z,20.70
2018-06-27T23:01:24.942Z,20.80
2018-06-27T23:03:53.292Z,20.70
2018-06-27T23:06:21.827Z,20.70
2018-06-27T23:08:50.281Z,20.70
2018-06-27T23:11:18.713Z,20.50
2018-06-27T23:13:47.095Z,20.60
2018-06-27T23:16:16.089Z,20.50
2018-06-27T23:18:44.484Z,20.50
2018-06-27T23:21:12.888Z,20.40
2018-06-27T23:23:41.295Z,20.50
2018-06-27T23:26:09.698Z,20.60
2018-06-27T23:28:38.099Z,20.70
2018-06-27T23:31:06.801Z,20.40
2018-06-27T23:33:35.185Z,20.50
2018-06-27T23:36:03.661Z,20.40
2018-06-27T23:38:32.344Z,20.50
2018-06-27T23:41:00.696Z,20.50
2018-06-27T23:43:29.119Z,20.40
2018-06-27T23:48:25.574Z,20.40
2018-06-27T23:50:53.991Z,20.30
2018-06-27T23:53:22.392Z,20.30
2018-06-27T23:55:50.809Z,20.30
2018-06-27T23:58:19.252Z,20.40
